DATA ZE ZPRÁV METAR

Zprávy METAR jsou pravidelné letecké meteorologické zprávy o podmínkách na daném letišti, zejména o stavu oblačnosti, viditelnosti a průběhu počasí v poslední hodině. Na letištích s pravidelným provozem jsou vydávány každých 30 minut, jinak zpravidla jednou za hodinu. Ne každé letiště (zejména komerční) poskytuje zprávy po celých 24 hodin denně. Více o zprávách METAR najdete na této stránce.

Zprávy METAR z letišť v blízkém okolí

LKPR - Praha Ruzyně, Česká republika
Směr a vzdálenost od této stanice: ZJZ 98km
Aktualizováno: 21.05.2018 14:30
Jasno, Jasná obloha
Jasno, Jasná obloha
 Vítr ze směru VSV
Vítr: VSV 22 km/h
Teplota: 21°C
Rosný bod: 9°C
Vlhkost: 46%
Tlak vzduchu: 1017 hPa
Stav počasí: Jasno
Oblačnost: Jasná obloha
Dohlednost: více než 10 km
2018/05/21 12:30 LKPR 211230Z 07012KT 040V110 CAVOK 21/09 Q1017 NOSIG
LKTB - Brno Tuřany, Česká republika
Směr a vzdálenost od této stanice: JJV 174km
Aktualizováno: 21.05.2018 14:30
Jasno, Jasná obloha
Jasno, Jasná obloha
 Vítr ze směru V
Vítr: V 20 km/h
Teplota: 21°C
Rosný bod: 7°C
Vlhkost: 40%
Tlak vzduchu: 1018 hPa
Stav počasí: Jasno
Oblačnost: Jasná obloha
Dohlednost: více než 10 km
2018/05/21 12:30 LKTB 211230Z 08011KT CAVOK 21/07 Q1018 NOSIG
 
LKKV - Karlovy Vary, Česká republika
Směr a vzdálenost od této stanice: Z 187km
Aktualizováno: 21.05.2018 14:30
Jasno, Jasná obloha
Jasno, Jasná obloha
 Vítr ze směru V
Vítr: V 26 km/h
Teplota: 19°C
Rosný bod: 6°C
Vlhkost: 43%
Tlak vzduchu: 1017 hPa
Stav počasí: Jasno
Oblačnost: Jasná obloha
Dohlednost: více než 10 km
2018/05/21 12:30 LKKV 211230Z 10014KT 050V120 CAVOK 19/06 Q1017
LKMT - Ostrava Mošnov, Česká republika
Směr a vzdálenost od této stanice: VJV 208km
Aktualizováno: 21.05.2018 14:30
Jasno, Jasná obloha
Jasno, Jasná obloha
 Vítr ze směru SV
Vítr: SV 20 km/h
Teplota: 20°C
Rosný bod: 8°C
Vlhkost: 46%
Tlak vzduchu: 1019 hPa
Stav počasí: Jasno
Oblačnost: Jasná obloha
Dohlednost: více než 10 km
2018/05/21 12:30 LKMT 211230Z 05011KT 020V080 CAVOK 20/08 Q1019 NOSIG
 
LKPD - Pardubice, Česká republika
Směr a vzdálenost od této stanice: JJV 56km
Aktualizováno: 21.05.2018 14:00
Jasno, Jasná obloha
Jasno, Jasná obloha
 Vítr ze směru V
Vítr: V 17 km/h
Teplota: 22°C
Rosný bod: 6°C
Vlhkost: 36%
Tlak vzduchu: 1018 hPa
Stav počasí: Jasno
Oblačnost: Jasná obloha
Dohlednost: více než 10 km
2018/05/21 12:00 LKPD 211200Z 09009KT CAVOK 22/06 Q1018 NOSIG RMK BLU BLU
LKKB - Praha Kbely, Česká republika
Směr a vzdálenost od této stanice: ZJZ 81km
Aktualizováno: 21.05.2018 14:00
Skoro jasno
Skoro jasno
 Vítr ze směru V
Vítr: V 22 km/h
Teplota: 21°C
Rosný bod: 8°C
Vlhkost: 43%
Tlak vzduchu: 1018 hPa
Oblačnost: Skoro jasno
Dohlednost: 10 km
Detaily oblačnosti: Skoro jasno 1433 m
2018/05/21 12:00 LKKB 211200Z 08012KT 040V100 9999 FEW047 21/08 Q1018 NOSIG
 
LKCV - Čáslav, Česká republika
Směr a vzdálenost od této stanice: J 63km
Aktualizováno: 21.05.2018 14:00
Jasno, Jasná obloha
Jasno, Jasná obloha
 Vítr ze směru VSV
Vítr: VSV 20 km/h
Teplota: 21°C
Rosný bod: 8°C
Vlhkost: 43%
Tlak vzduchu: 1018 hPa
Stav počasí: Jasno
Oblačnost: Jasná obloha
Dohlednost: více než 10 km
2018/05/21 12:00 LKCV 211200Z 06011KT CAVOK 21/08 Q1018 NOSIG RMK BLU BLU
LKNA - Náměšť n. Osl., Česká republika
Směr a vzdálenost od této stanice: JJV 154km
Aktualizováno: 21.05.2018 14:00
Jasno, Jasná obloha
Jasno, Jasná obloha
 Vítr ze směru V
Vítr: V 13 km/h
Teplota: 19°C
Rosný bod: 8°C
Vlhkost: 49%
Tlak vzduchu: 1018 hPa
Stav počasí: Jasno
Oblačnost: Jasná obloha
Dohlednost: více než 10 km
2018/05/21 12:00 LKNA 211200Z 08007KT 030V120 CAVOK 19/08 Q1018 NOSIG RMK BLU BLU
 
LKLN - Plzeň Líně, Česká republika
Směr a vzdálenost od této stanice: ZJZ 184km
Aktualizováno: 21.05.2018 14:00
Skoro zataženo
Skoro zataženo
 Vítr ze směru V
Vítr: V 19 km/h
Teplota: 22°C
Rosný bod: 8°C
Vlhkost: 41%
Tlak vzduchu: 1017 hPa
Oblačnost: Skoro zataženo
Dohlednost: 10 km
Detaily oblačnosti: Polojasno 1920 m
Skoro zataženo 2195 m
2018/05/21 12:00 LKLN 211200Z AUTO 08010KT 040V130 9999 SCT063 BKN072 22/08 Q1017
EDDC - Dresden Klotzsch, Německo
Směr a vzdálenost od této stanice: ZSZ 142km
Aktualizováno: 21.05.2018 14:20
Jasno, Jasná obloha
Jasno, Jasná obloha
 Vítr ze směru V
Vítr: V 26 km/h
Teplota: 21°C
Rosný bod: 7°C
Vlhkost: 40%
Tlak vzduchu: 1019 hPa
Stav počasí: Jasno
Oblačnost: Jasná obloha
Dohlednost: více než 10 km
2018/05/21 12:20 EDDC 211220Z 08014KT 040V130 CAVOK 21/07 Q1019 TEMPO 09015G25KT